createdAt,value
2018-09-13T00:00:53.472Z,100170.09
2018-09-13T00:03:22.172Z,100166.47
2018-09-13T00:05:50.865Z,100164.96
2018-09-13T00:08:19.652Z,100163.13
2018-09-13T00:10:48.257Z,100168.40
2018-09-13T00:13:16.896Z,100158.43
2018-09-13T00:15:45.512Z,100156.32
2018-09-13T00:18:14.237Z,100158.15
2018-09-13T00:20:42.813Z,100153.53
2018-09-13T00:23:11.412Z,100161.22
2018-09-13T00:25:40.056Z,100153.72
2018-09-13T00:28:08.668Z,100164.62
2018-09-13T00:30:37.288Z,100159.88
2018-09-13T00:33:05.863Z,100170.47
2018-09-13T00:35:34.440Z,100171.19
2018-09-13T00:38:03.029Z,100172.72
2018-09-13T00:40:31.616Z,100173.59
2018-09-13T00:43:00.238Z,100166.67
2018-09-13T00:45:28.880Z,100167.23
2018-09-13T00:47:57.472Z,100159.95
2018-09-13T00:50:26.083Z,100161.38
2018-09-13T00:52:54.667Z,100164.07
2018-09-13T00:55:23.316Z,100169.58
2018-09-13T00:57:51.901Z,100165.72
2018-09-13T01:00:20.497Z,100167.09
2018-09-13T01:02:49.202Z,100169.53
2018-09-13T01:05:17.815Z,100178.28
2018-09-13T01:07:46.406Z,100180.37
2018-09-13T01:10:14.976Z,100187.59
2018-09-13T01:12:43.634Z,100184.98
2018-09-13T01:15:12.589Z,100191.44
2018-09-13T01:17:41.178Z,100196.34
2018-09-13T01:20:09.848Z,100198.96
2018-09-13T01:22:38.464Z,100201.91
2018-09-13T01:25:07.121Z,100208.27
2018-09-13T01:27:35.735Z,100209.55
2018-09-13T01:30:04.327Z,100217.23
2018-09-13T01:32:32.904Z,100212.97
2018-09-13T01:35:01.493Z,100215.95
2018-09-13T01:37:30.138Z,100213.81
2018-09-13T01:39:58.745Z,100222.83
2018-09-13T01:42:27.368Z,100216.59
2018-09-13T01:44:55.966Z,100221.62
2018-09-13T01:47:24.560Z,100214.52
2018-09-13T01:49:53.626Z,100211.14
2018-09-13T01:52:22.224Z,100209.86
2018-09-13T01:54:50.804Z,100213.93
2018-09-13T01:57:19.417Z,100224.03
2018-09-13T01:59:48.029Z,100221.20
2018-09-13T02:02:16.864Z,100224.61
2018-09-13T02:04:45.464Z,100216.39
2018-09-13T02:07:14.254Z,100220.27
2018-09-13T02:09:42.889Z,100223.76
2018-09-13T02:12:11.517Z,100232.20
2018-09-13T02:14:40.445Z,100235.05
2018-09-13T02:17:09.054Z,100231.48
2018-09-13T02:19:37.644Z,100231.64
2018-09-13T02:22:06.529Z,100233.75
2018-09-13T02:24:35.125Z,100235.15
2018-09-13T02:27:03.760Z,100238.95
2018-09-13T02:29:32.384Z,100238.90
2018-09-13T02:32:01.004Z,100243.12
2018-09-13T02:34:29.620Z,100243.73
2018-09-13T02:36:58.213Z,100253.19
2018-09-13T02:39:27.258Z,100244.97
2018-09-13T02:41:56.071Z,100247.77
2018-09-13T02:44:24.685Z,100242.83
2018-09-13T02:46:53.353Z,100241.13
2018-09-13T02:49:22.043Z,100244.20
2018-09-13T02:51:50.869Z,100251.92
2018-09-13T02:54:19.490Z,100254.61
2018-09-13T02:56:48.085Z,100248.42
2018-09-13T02:59:16.702Z,100249.03
2018-09-13T03:01:45.333Z,100251.99
2018-09-13T03:04:13.974Z,100257.08
2018-09-13T03:06:42.676Z,100256.78
2018-09-13T03:09:12.786Z,100254.88
2018-09-13T03:11:42.492Z,100249.38
2018-09-13T03:14:11.357Z,100250.67
2018-09-13T03:16:40.081Z,100258.27
2018-09-13T03:19:08.789Z,100252.21
2018-09-13T03:21:37.369Z,100253.33
2018-09-13T03:24:06.061Z,100251.95
2018-09-13T03:26:35.006Z,100251.28
2018-09-13T03:29:03.875Z,100249.12
2018-09-13T03:31:32.644Z,100244.12
2018-09-13T03:34:01.620Z,100232.21
2018-09-13T03:36:30.317Z,100237.53
2018-09-13T03:38:58.901Z,100233.31
2018-09-13T03:41:27.558Z,100239.98
2018-09-13T03:43:56.273Z,100240.08
2018-09-13T03:46:24.995Z,100239.53
2018-09-13T03:48:53.628Z,100231.98
2018-09-13T03:51:22.256Z,100244.44
2018-09-13T03:53:50.844Z,100245.61
2018-09-13T03:56:19.431Z,100247.30
2018-09-13T03:58:48.104Z,100250.23
2018-09-13T04:01:16.706Z,100247.86
2018-09-13T04:03:45.485Z,100255.38
2018-09-13T04:06:14.117Z,100250.23
2018-09-13T04:08:42.781Z,100247.75
2018-09-13T04:11:11.404Z,100249.44
2018-09-13T04:13:40.044Z,100247.37
2018-09-13T04:16:08.652Z,100240.58
2018-09-13T04:18:37.509Z,100240.72
2018-09-13T04:21:06.226Z,100250.14
2018-09-13T04:23:34.864Z,100253.80
2018-09-13T04:26:03.616Z,100256.47
2018-09-13T04:28:32.213Z,100257.58
2018-09-13T04:31:00.796Z,100251.47
2018-09-13T04:33:29.416Z,100253.75
2018-09-13T04:35:58.108Z,100253.22
2018-09-13T04:38:26.865Z,100251.98
2018-09-13T04:40:55.460Z,100252.98
2018-09-13T04:43:24.112Z,100254.33
2018-09-13T04:45:52.749Z,100250.53
2018-09-13T04:48:21.379Z,100259.77
2018-09-13T04:50:49.972Z,100264.20
2018-09-13T04:53:18.569Z,100265.51
2018-09-13T04:55:47.220Z,100266.97
2018-09-13T04:58:15.881Z,100270.10
2018-09-13T05:00:44.577Z,100256.02
2018-09-13T05:03:13.214Z,100247.52
2018-09-13T05:05:41.858Z,100250.89
2018-09-13T05:08:10.459Z,100231.88
2018-09-13T05:10:45.716Z,100232.66
2018-09-13T05:13:14.298Z,100233.70
2018-09-13T05:15:42.891Z,100242.05
2018-09-13T05:18:11.497Z,100246.84
2018-09-13T05:20:40.104Z,100253.92
2018-09-13T05:23:08.700Z,100254.63
2018-09-13T05:25:37.400Z,100253.44
2018-09-13T05:28:06.408Z,100258.40
2018-09-13T05:30:35.037Z,100261.80
2018-09-13T05:33:03.636Z,100254.06
2018-09-13T05:35:32.226Z,100253.28
2018-09-13T05:38:00.808Z,100250.67
2018-09-13T05:40:29.775Z,100254.84
2018-09-13T05:42:58.437Z,100255.16
2018-09-13T05:45:27.422Z,100254.79
2018-09-13T05:47:56.018Z,100259.95
2018-09-13T05:50:24.708Z,100258.41
2018-09-13T05:52:53.392Z,100255.17
2018-09-13T05:55:22.013Z,100254.13
2018-09-13T05:57:50.619Z,100246.03
2018-09-13T06:00:19.228Z,100244.20
2018-09-13T06:02:47.863Z,100251.84
2018-09-13T06:05:17.105Z,100252.56
2018-09-13T06:07:45.729Z,100247.53
2018-09-13T06:10:14.648Z,100245.44
2018-09-13T06:12:43.329Z,100245.58
2018-09-13T06:15:11.918Z,100245.65
2018-09-13T06:17:40.601Z,100249.89
2018-09-13T06:20:09.449Z,100247.84
2018-09-13T06:22:38.661Z,100248.07
2018-09-13T06:25:08.832Z,100243.95
2018-09-13T06:27:38.176Z,100252.20
2018-09-13T06:30:07.830Z,100251.55
2018-09-13T06:32:37.073Z,100258.28
2018-09-13T06:35:06.772Z,100255.45
2018-09-13T06:37:35.964Z,100257.98
2018-09-13T06:40:05.148Z,100268.52
2018-09-13T06:42:34.446Z,100264.59
2018-09-13T06:45:03.817Z,100263.87
2018-09-13T06:47:33.100Z,100272.61
2018-09-13T06:50:02.339Z,100276.45
2018-09-13T06:52:31.508Z,100265.88
2018-09-13T06:55:00.678Z,100268.95
2018-09-13T06:57:29.920Z,100269.05
2018-09-13T06:59:59.693Z,100271.55
2018-09-13T07:02:28.966Z,100272.52
2018-09-13T07:04:58.366Z,100273.31
2018-09-13T07:07:27.672Z,100277.87
2018-09-13T07:09:56.927Z,100275.13
2018-09-13T07:12:26.140Z,100270.85
2018-09-13T07:14:55.306Z,100279.05
2018-09-13T07:17:24.536Z,100282.42
2018-09-13T07:19:53.735Z,100275.88
2018-09-13T07:22:22.991Z,100279.00
2018-09-13T07:24:52.148Z,100272.28
2018-09-13T07:27:21.347Z,100271.89
2018-09-13T07:29:51.224Z,100265.62
2018-09-13T07:32:20.617Z,100277.56
2018-09-13T07:34:49.800Z,100269.59
2018-09-13T07:37:19.245Z,100270.59
2018-09-13T07:39:48.469Z,100281.06
2018-09-13T07:42:17.648Z,100270.02
2018-09-13T07:44:46.872Z,100263.13
2018-09-13T07:47:16.065Z,100260.69
2018-09-13T07:49:45.330Z,100266.34
2018-09-13T07:52:14.728Z,100265.55
2018-09-13T07:54:43.916Z,100267.70
2018-09-13T07:57:13.119Z,100258.91
2018-09-13T07:59:42.288Z,100262.30
2018-09-13T08:02:11.532Z,100260.91
2018-09-13T08:04:40.771Z,100260.91
2018-09-13T08:07:09.955Z,100275.12
2018-09-13T08:09:39.176Z,100281.79
2018-09-13T08:12:08.504Z,100279.51
2018-09-13T08:14:37.737Z,100290.50
2018-09-13T08:17:06.941Z,100282.55
2018-09-13T08:19:36.132Z,100285.16
2018-09-13T08:22:05.369Z,100281.17
2018-09-13T08:24:34.685Z,100274.86
2018-09-13T08:27:03.891Z,100283.95
2018-09-13T08:29:33.414Z,100276.05
2018-09-13T08:32:02.585Z,100267.33
2018-09-13T08:34:31.776Z,100253.79
2018-09-13T08:37:03.063Z,100252.50
2018-09-13T08:39:32.445Z,100255.63
2018-09-13T08:42:01.777Z,100255.02
2018-09-13T08:44:30.965Z,100255.16
2018-09-13T08:47:00.666Z,100260.95
2018-09-13T08:49:29.849Z,100263.36
2018-09-13T08:51:59.067Z,100267.02
2018-09-13T08:54:28.516Z,100262.97
2018-09-13T08:56:57.773Z,100257.14
2018-09-13T08:59:27.453Z,100252.36
2018-09-13T09:01:56.680Z,100239.20
2018-09-13T09:04:25.843Z,100232.25
2018-09-13T09:06:55.601Z,100226.69
2018-09-13T09:09:25.112Z,100224.48
2018-09-13T09:11:54.297Z,100218.56
2018-09-13T09:14:23.795Z,100220.11
2018-09-13T09:16:53.196Z,100212.95
2018-09-13T09:19:22.433Z,100222.04
2018-09-13T09:21:51.653Z,100234.52
2018-09-13T09:24:20.816Z,100236.54
2018-09-13T09:26:49.967Z,100236.42
2018-09-13T09:29:19.382Z,100240.81
2018-09-13T09:31:48.807Z,100241.63
2018-09-13T09:34:18.092Z,100241.83
2018-09-13T09:36:47.241Z,100239.64
2018-09-13T09:39:16.414Z,100247.50
2018-09-13T09:41:45.589Z,100241.59
2018-09-13T09:44:14.877Z,100246.19
2018-09-13T09:46:44.192Z,100234.97
2018-09-13T09:49:13.433Z,100224.02
2018-09-13T09:51:42.603Z,100218.47
2018-09-13T09:54:11.755Z,100212.34
2018-09-13T09:56:40.969Z,100207.67
2018-09-13T09:59:10.147Z,100202.28
2018-09-13T10:01:44.814Z,100203.09
2018-09-13T10:04:14.036Z,100203.00
2018-09-13T10:06:43.405Z,100199.05
2018-09-13T10:09:12.680Z,100199.95
2018-09-13T10:11:41.848Z,100201.34
2018-09-13T10:14:11.060Z,100194.94
2018-09-13T10:16:45.412Z,100195.26
2018-09-13T10:19:20.004Z,100185.80
2018-09-13T10:21:54.836Z,100180.77
2018-09-13T10:24:30.184Z,100169.11
2018-09-13T10:27:04.836Z,100171.55
2018-09-13T10:29:39.583Z,100170.98
2018-09-13T10:32:14.350Z,100179.45
2018-09-13T10:34:48.910Z,100167.94
2018-09-13T10:37:23.366Z,100176.04
2018-09-13T10:40:58.680Z,100180.45
2018-09-13T10:43:33.178Z,100169.25
2018-09-13T10:46:07.676Z,100170.76
2018-09-13T10:48:36.932Z,100185.81
2018-09-13T10:51:16.548Z,100181.27
2018-09-13T10:53:50.313Z,100191.41
2018-09-13T10:56:19.527Z,100187.78
2018-09-13T10:58:49.078Z,100177.16
2018-09-13T11:01:18.288Z,100179.09
2018-09-13T11:03:47.448Z,100177.27
2018-09-13T11:06:16.671Z,100169.92
2018-09-13T11:08:45.971Z,100173.16
2018-09-13T11:11:15.283Z,100163.38
2018-09-13T11:13:53.252Z,100162.48
2018-09-13T11:16:22.635Z,100154.73
2018-09-13T11:18:51.797Z,100156.19
2018-09-13T11:21:20.964Z,100152.33
2018-09-13T11:23:50.392Z,100147.77
2018-09-13T11:26:19.624Z,100149.36
2018-09-13T11:28:49.054Z,100150.67
2018-09-13T11:31:18.314Z,100149.16
2018-09-13T11:33:47.756Z,100143.89
2018-09-13T11:36:17.854Z,100137.70
2018-09-13T11:38:47.124Z,100145.43
2018-09-13T11:41:16.322Z,100145.53
2018-09-13T11:43:45.620Z,100139.30
2018-09-13T11:46:15.162Z,100138.19
2018-09-13T11:48:44.328Z,100136.78
2018-09-13T11:51:13.738Z,100126.75
2018-09-13T11:53:43.308Z,100132.35
2018-09-13T11:56:12.473Z,100124.13
2018-09-13T11:58:42.045Z,100127.11
2018-09-13T12:01:11.504Z,100121.98
2018-09-13T12:03:40.900Z,100123.70
2018-09-13T12:06:10.189Z,100123.38
2018-09-13T12:08:39.435Z,100115.27
2018-09-13T12:11:08.685Z,100112.38
2018-09-13T12:13:37.988Z,100106.83
2018-09-13T12:16:07.602Z,100108.40
2018-09-13T12:18:36.855Z,100109.95
2018-09-13T12:21:06.065Z,100107.20
2018-09-13T12:23:35.241Z,100115.08
2018-09-13T12:26:04.572Z,100108.58
2018-09-13T12:28:33.969Z,100107.10
2018-09-13T12:31:03.138Z,100110.68
2018-09-13T12:33:32.802Z,100106.29
2018-09-13T12:36:02.438Z,100105.66
2018-09-13T12:38:31.750Z,100110.97
2018-09-13T12:41:01.860Z,100106.22
2018-09-13T12:43:31.046Z,100107.10
2018-09-13T12:46:00.262Z,100102.78
2018-09-13T12:48:29.766Z,100098.80
2018-09-13T12:50:59.007Z,100099.55
2018-09-13T12:53:28.763Z,100104.29
2018-09-13T12:55:58.010Z,100096.30
2018-09-13T12:58:27.597Z,100094.19
2018-09-13T13:00:56.821Z,100086.58
2018-09-13T13:03:26.140Z,100090.12
2018-09-13T13:05:56.711Z,100084.22
2018-09-13T13:08:26.048Z,100082.73
2018-09-13T13:10:55.329Z,100082.34
2018-09-13T13:13:26.600Z,100077.32
2018-09-13T13:15:55.801Z,100076.44
2018-09-13T13:18:25.087Z,100074.59
2018-09-13T13:20:54.269Z,100079.93
2018-09-13T13:23:23.457Z,100083.95
2018-09-13T13:25:53.219Z,100077.59
2018-09-13T13:28:22.496Z,100074.86
2018-09-13T13:30:51.996Z,100072.12
2018-09-13T13:33:21.152Z,100073.22
2018-09-13T13:35:50.327Z,100073.69
2018-09-13T13:38:19.771Z,100067.39
2018-09-13T13:40:49.332Z,100060.61
2018-09-13T13:43:18.529Z,100058.02
2018-09-13T13:45:47.744Z,100053.94
2018-09-13T13:48:17.263Z,100049.17
2018-09-13T13:50:46.440Z,100054.59
2018-09-13T13:53:15.609Z,100044.96
2018-09-13T13:55:44.833Z,100042.16
2018-09-13T13:58:14.036Z,100033.64
2018-09-13T14:00:43.320Z,100037.60
2018-09-13T14:03:12.547Z,100031.53
2018-09-13T14:05:41.914Z,100031.78
2018-09-13T14:08:11.151Z,100028.42
2018-09-13T14:10:40.344Z,100021.64
2018-09-13T14:13:09.612Z,100024.38
2018-09-13T14:15:38.795Z,100029.86
2018-09-13T14:18:07.976Z,100025.19
2018-09-13T14:20:37.334Z,100022.14
2018-09-13T14:23:06.621Z,100030.52
2018-09-13T14:25:35.849Z,100025.28
2018-09-13T14:28:05.523Z,100025.88
2018-09-13T14:30:34.834Z,100018.80
2018-09-13T14:33:04.119Z,100015.41
2018-09-13T14:35:33.448Z,100012.16
2018-09-13T14:38:03.085Z,100015.95
2018-09-13T14:40:32.359Z,100023.54
2018-09-13T14:43:01.675Z,100020.91
2018-09-13T14:45:30.935Z,100024.41
2018-09-13T14:48:00.167Z,100025.02
2018-09-13T14:50:29.390Z,100024.48
2018-09-13T14:52:58.552Z,100031.24
2018-09-13T14:55:27.882Z,100034.05
2018-09-13T14:57:57.133Z,100030.95
2018-09-13T15:00:26.346Z,100029.07
2018-09-13T15:02:55.741Z,100015.75
2018-09-13T15:05:25.011Z,100018.55
2018-09-13T15:07:54.196Z,100009.92
2018-09-13T15:10:23.725Z,100010.73
2018-09-13T15:12:52.957Z,100011.90
2018-09-13T15:15:22.324Z,100007.14
2018-09-13T15:17:51.488Z,100007.94
2018-09-13T15:20:20.671Z,99994.08
2018-09-13T15:22:49.908Z,99992.86
2018-09-13T15:25:19.120Z,99995.40
2018-09-13T15:27:48.373Z,99998.13
2018-09-13T15:30:17.553Z,100005.80
2018-09-13T15:32:46.801Z,100000.70
2018-09-13T15:35:16.006Z,100005.98
2018-09-13T15:37:45.277Z,100008.27
2018-09-13T15:40:14.484Z,100009.68
2018-09-13T15:42:43.693Z,100009.83
2018-09-13T15:45:12.888Z,100007.97
2018-09-13T15:47:42.066Z,100002.09
2018-09-13T15:50:11.334Z,100000.02
2018-09-13T15:52:40.601Z,99990.00
2018-09-13T15:55:10.069Z,99990.58
2018-09-13T15:57:39.221Z,99990.67
2018-09-13T16:00:08.717Z,99989.09
2018-09-13T16:02:38.349Z,100001.92
2018-09-13T16:05:07.755Z,100000.88
2018-09-13T16:07:36.943Z,100003.34
2018-09-13T16:10:06.313Z,100004.19
2018-09-13T16:12:35.585Z,100000.61
2018-09-13T16:15:04.953Z,100003.13
2018-09-13T16:17:34.650Z,100003.47
2018-09-13T16:20:04.427Z,100009.56
2018-09-13T16:25:09.323Z,100002.09
2018-09-13T16:27:38.513Z,100003.53
2018-09-13T16:30:08.169Z,100009.06
2018-09-13T16:32:37.746Z,100021.11
2018-09-13T16:35:07.916Z,100013.48
2018-09-13T16:37:42.875Z,100026.34
2018-09-13T16:40:17.890Z,100032.15
2018-09-13T16:42:53.719Z,100039.25
2018-09-13T16:45:27.157Z,100037.56
2018-09-13T16:48:02.680Z,100040.03
2018-09-13T16:50:31.871Z,100048.02
2018-09-13T16:53:01.572Z,100045.28
2018-09-13T16:55:30.976Z,100047.52
2018-09-13T16:58:00.258Z,100054.36
2018-09-13T17:00:29.476Z,100047.61
2018-09-13T17:02:58.757Z,100063.14
2018-09-13T17:05:27.973Z,100066.48
2018-09-13T17:07:56.583Z,100069.79
2018-09-13T17:10:25.201Z,100077.70
2018-09-13T17:12:53.792Z,100084.00
2018-09-13T17:15:22.444Z,100086.20
2018-09-13T17:17:51.025Z,100089.78
2018-09-13T17:20:19.639Z,100086.58
2018-09-13T17:22:48.502Z,100086.12
2018-09-13T17:25:17.100Z,100075.34
2018-09-13T17:27:45.740Z,100085.69
2018-09-13T17:30:14.335Z,100095.50
2018-09-13T17:32:42.918Z,100091.45
2018-09-13T17:35:11.490Z,100088.73
2018-09-13T17:37:40.113Z,100092.79
2018-09-13T17:40:08.776Z,100087.90
2018-09-13T17:42:37.374Z,100088.95
2018-09-13T17:45:06.249Z,100100.85
2018-09-13T17:47:35.032Z,100083.43
2018-09-13T17:50:03.669Z,100087.71
2018-09-13T17:52:32.274Z,100094.19
2018-09-13T17:55:00.925Z,100097.41
2018-09-13T17:57:29.698Z,100091.66
2018-09-13T17:59:58.313Z,100094.34
2018-09-13T18:02:26.924Z,100091.59
2018-09-13T18:04:55.546Z,100095.92
2018-09-13T18:07:24.145Z,100096.19
2018-09-13T18:09:52.788Z,100100.48
2018-09-13T18:12:21.457Z,100099.34
2018-09-13T18:14:50.098Z,100090.63
2018-09-13T18:17:18.696Z,100095.76
2018-09-13T18:19:47.284Z,100098.14
2018-09-13T18:22:16.169Z,100105.95
2018-09-13T18:24:44.788Z,100105.14
2018-09-13T18:27:13.453Z,100101.61
2018-09-13T18:29:42.212Z,100091.27
2018-09-13T18:32:10.927Z,100096.39
2018-09-13T18:34:39.670Z,100087.40
2018-09-13T18:37:08.668Z,100094.71
2018-09-13T18:39:37.477Z,100089.83
2018-09-13T18:42:06.827Z,100096.55
2018-09-13T18:44:35.539Z,100093.56
2018-09-13T18:47:04.696Z,100101.69
2018-09-13T18:49:33.532Z,100108.73
2018-09-13T18:52:02.562Z,100098.48
2018-09-13T18:54:31.586Z,100091.72
2018-09-13T18:57:00.467Z,100090.08
2018-09-13T18:59:29.169Z,100088.41
2018-09-13T19:01:58.039Z,100082.77
2018-09-13T19:04:26.783Z,100085.47
2018-09-13T19:06:55.427Z,100078.66
2018-09-13T19:09:24.036Z,100078.12
2018-09-13T19:11:52.786Z,100083.80
2018-09-13T19:14:21.568Z,100092.78
2018-09-13T19:16:50.178Z,100089.83
2018-09-13T19:19:18.783Z,100083.60
2018-09-13T19:21:47.394Z,100089.83
2018-09-13T19:24:16.048Z,100096.06
2018-09-13T19:26:44.666Z,100084.73
2018-09-13T19:29:13.294Z,100080.91
2018-09-13T19:31:41.895Z,100083.66
2018-09-13T19:34:10.504Z,100094.17
2018-09-13T19:36:39.165Z,100077.10
2018-09-13T19:39:10.184Z,100066.53
2018-09-13T19:41:39.138Z,100067.56
2018-09-13T19:44:07.840Z,100078.66
2018-09-13T19:46:36.601Z,100084.13
2018-09-13T19:49:05.268Z,100072.47
2018-09-13T19:51:33.932Z,100069.45
2018-09-13T19:54:02.816Z,100083.79
2018-09-13T19:56:31.652Z,100067.21
2018-09-13T19:59:00.265Z,100061.23
2018-09-13T20:01:29.809Z,100061.97
2018-09-13T20:03:58.405Z,100067.37
2018-09-13T20:06:27.047Z,100065.20
2018-09-13T20:08:55.696Z,100071.97
2018-09-13T20:11:24.309Z,100060.31
2018-09-13T20:13:53.003Z,100067.89
2018-09-13T20:16:21.625Z,100073.26
2018-09-13T20:18:50.244Z,100078.12
2018-09-13T20:21:18.846Z,100080.03
2018-09-13T20:23:49.171Z,100075.41
2018-09-13T20:26:18.424Z,100069.66
2018-09-13T20:28:47.076Z,100070.17
2018-09-13T20:31:15.907Z,100069.83
2018-09-13T20:33:44.496Z,100060.52
2018-09-13T20:36:13.131Z,100061.00
2018-09-13T20:38:41.983Z,100067.19
2018-09-13T20:41:10.605Z,100066.34
2018-09-13T20:43:39.364Z,100067.48
2018-09-13T20:46:07.976Z,100058.83
2018-09-13T20:48:36.651Z,100058.27
2018-09-13T20:51:05.580Z,100049.36
2018-09-13T20:53:34.624Z,100045.84
2018-09-13T20:56:03.212Z,100051.46
2018-09-13T20:58:31.836Z,100054.70
2018-09-13T21:01:00.489Z,100052.80
2018-09-13T21:03:29.116Z,100054.41
2018-09-13T21:05:57.740Z,100066.31
2018-09-13T21:08:26.418Z,100066.31
2018-09-13T21:10:55.245Z,100074.23
2018-09-13T21:13:23.844Z,100076.88
2018-09-13T21:15:52.460Z,100072.02
2018-09-13T21:18:21.077Z,100069.84
2018-09-13T21:20:49.660Z,100073.38
2018-09-13T21:23:18.225Z,100075.81
2018-09-13T21:25:46.827Z,100077.95
2018-09-13T21:28:15.500Z,100077.17
2018-09-13T21:30:44.076Z,100084.71
2018-09-13T21:33:12.749Z,100083.89
2018-09-13T21:35:41.374Z,100083.09
2018-09-13T21:38:09.992Z,100075.33
2018-09-13T21:40:38.645Z,100070.91
2018-09-13T21:43:07.285Z,100074.16
2018-09-13T21:45:35.895Z,100074.42
2018-09-13T21:48:04.528Z,100081.47
2018-09-13T21:50:33.175Z,100076.80
2018-09-13T21:53:01.825Z,100080.91
2018-09-13T21:57:58.048Z,100084.36
2018-09-13T22:00:26.643Z,100081.56
2018-09-13T22:02:55.822Z,100080.03
2018-09-13T22:05:24.525Z,100077.58
2018-09-13T22:07:53.340Z,100085.17
2018-09-13T22:10:22.073Z,100084.09
2018-09-13T22:12:50.701Z,100082.59
2018-09-13T22:15:19.346Z,100086.58
2018-09-13T22:17:48.087Z,100081.97
2018-09-13T22:20:16.909Z,100076.05
2018-09-13T22:22:45.550Z,100082.86
2018-09-13T22:25:14.228Z,100081.84
2018-09-13T22:27:42.854Z,100079.75
2018-09-13T22:30:11.582Z,100073.17
2018-09-13T22:32:40.221Z,100079.40
2018-09-13T22:35:09.086Z,100084.48
2018-09-13T22:37:37.749Z,100086.30
2018-09-13T22:40:08.315Z,100083.95
2018-09-13T22:42:36.960Z,100078.38
2018-09-13T22:45:05.886Z,100081.64
2018-09-13T22:47:34.599Z,100083.27
2018-09-13T22:50:03.287Z,100087.79
2018-09-13T22:52:32.042Z,100087.95
2018-09-13T22:55:00.726Z,100083.58
2018-09-13T22:57:29.525Z,100080.67
2018-09-13T22:59:58.167Z,100077.84
2018-09-13T23:02:26.790Z,100072.58
2018-09-13T23:04:55.530Z,100079.77
2018-09-13T23:07:24.215Z,100075.06
2018-09-13T23:09:52.930Z,100074.22
2018-09-13T23:12:22.399Z,100071.69
2018-09-13T23:14:51.356Z,100074.06
2018-09-13T23:17:20.029Z,100071.27
2018-09-13T23:19:49.692Z,100065.55
2018-09-13T23:22:18.332Z,100058.06
2018-09-13T23:24:47.522Z,100058.15
2018-09-13T23:27:16.698Z,100052.38
2018-09-13T23:29:45.321Z,100056.05
2018-09-13T23:32:14.008Z,100064.09
2018-09-13T23:34:42.974Z,100065.91
2018-09-13T23:37:11.615Z,100084.09
2018-09-13T23:39:40.492Z,100086.41
2018-09-13T23:42:09.153Z,100086.48
2018-09-13T23:44:37.877Z,100091.47
2018-09-13T23:47:06.529Z,100094.32
2018-09-13T23:49:35.839Z,100093.10
2018-09-13T23:52:04.805Z,100100.82
2018-09-13T23:54:33.436Z,100102.67
2018-09-13T23:57:02.555Z,100097.14
2018-09-13T23:59:31.362Z,100097.27
